Time;durP1;ratioP1;P1;durP2;ratioP2;P2;SDS_P1;SDS_P2;PMS_P1;PMS_P2;Temp;Humidity;BMP_temperature;BMP_pressure;BME280_temperature;BME280_humidity;BME280_pressure;Samples;Min_cycle;Max_cycle;Signal;HPM_P1;HPM_P2
2021/09/17 04:52:16;;;;;;;38.73;14.75;;;;;;;8.78;73.67;100167.50;1613214;87;21594;-39
2021/09/17 04:54:51;;;;;;;31.15;15.83;;;;;;;8.89;73.56;100167.13;1625225;85;21035;-38
2021/09/17 04:57:29;;;;;;;46.55;16.27;;;;;;;8.99;73.93;100166.74;1616862;85;21600;-37
2021/09/17 05:00:06;;;;;;;43.55;20.00;;;;;;;9.12;73.61;100164.62;1627267;85;21802;-38
2021/09/17 05:02:34;;;;;;;56.50;23.05;;;;;;;9.25;73.33;100162.91;1642516;85;21125;-39
2021/09/17 05:05:30;;;;;;;65.65;22.55;;;;;;;9.34;73.09;100157.73;1626737;86;21062;-37
2021/09/17 05:08:45;;;;;;;51.48;19.35;;;;;;;9.43;72.90;100159.05;1627998;86;21830;-37
2021/09/17 05:12:09;;;;;;;43.85;16.87;;;;;;;9.56;72.77;100159.50;1614136;86;21044;-37
2021/09/17 05:18:53;;;;;;;34.33;14.15;;;;;;;9.88;72.28;100160.00;1581539;88;21064;-39
2021/09/17 05:21:32;;;;;;;35.05;15.60;;;;;;;10.08;72.27;100156.93;1585155;88;21146;-38
2021/09/17 05:24:19;;;;;;;38.02;15.68;;;;;;;10.24;72.10;100156.53;1596578;88;21069;-38
2021/09/17 06:08:57;;;;;;;36.30;14.43;;;;;;;13.10;66.09;100117.01;1674708;80;21165;-37
2021/09/17 06:12:11;;;;;;;43.68;15.53;;;;;;;13.39;65.09;100120.14;1674319;83;21047;-38
2021/09/17 06:15:32;;;;;;;36.20;15.78;;;;;;;13.61;64.99;100117.20;1656400;84;21112;-37
2021/09/17 06:18:50;;;;;;;40.10;15.72;;;;;;;13.82;64.61;100117.75;1697913;81;21179;-39
2021/09/17 06:21:38;;;;;;;42.80;16.55;;;;;;;14.11;63.56;100105.88;1679738;81;21839;-38
2021/09/17 06:24:21;;;;;;;37.88;15.00;;;;;;;14.32;63.29;100106.81;1664159;84;21047;-40
2021/09/17 06:26:59;;;;;;;37.35;16.23;;;;;;;14.50;62.92;100107.41;1658566;83;21088;-40
2021/09/17 06:29:27;;;;;;;31.55;15.18;;;;;;;14.67;62.50;100111.89;1659373;82;21061;-39
2021/09/17 06:36:09;;;;;;;27.43;12.13;;;;;;;14.97;61.12;100114.80;1624214;86;21631;-41
2021/09/17 06:39:09;;;;;;;22.25;12.05;;;;;;;15.17;60.44;100106.02;1610086;86;21352;-41
2021/09/17 06:47:58;;;;;;;26.57;12.28;;;;;;;15.63;57.87;100090.50;1646686;84;21953;-38
2021/09/17 06:50:47;;;;;;;31.82;12.25;;;;;;;15.72;58.00;100087.66;1626345;83;21090;-40
2021/09/17 06:53:40;;;;;;;31.75;10.90;;;;;;;15.87;58.07;100081.98;1633759;84;21678;-38
2021/09/17 06:56:51;;;;;;;35.05;11.28;;;;;;;16.03;57.63;100077.19;1613263;86;21040;-41
2021/09/17 07:06:32;;;;;;;33.13;11.30;;;;;;;16.57;55.71;100069.14;1602504;84;21056;-39
2021/09/17 07:09:12;;;;;;;19.80;10.93;;;;;;;16.71;55.54;100069.67;1627060;85;21106;-40
2021/09/17 07:23:50;;;;;;;23.47;11.78;;;;;;;17.47;53.35;100055.91;1588867;88;21088;-39
2021/09/17 07:27:02;;;;;;;32.50;11.88;;;;;;;17.64;52.78;100058.01;1572889;89;21350;-40
2021/09/17 07:29:45;;;;;;;33.18;10.13;;;;;;;17.80;53.00;100054.84;1570080;89;21037;-38
2021/09/17 07:32:15;;;;;;;25.70;11.03;;;;;;;17.97;52.20;100044.98;1549462;90;21108;-37
2021/09/17 07:34:47;;;;;;;30.00;9.83;;;;;;;18.11;52.36;100049.82;1544829;88;21036;-37
2021/09/17 07:37:14;;;;;;;16.15;10.13;;;;;;;18.26;52.01;100043.11;1573582;87;21202;-40
2021/09/17 07:39:43;;;;;;;20.88;9.68;;;;;;;18.41;51.09;100044.36;1560026;89;21184;-38
2021/09/17 07:42:14;;;;;;;25.17;9.33;;;;;;;18.51;51.20;100036.48;1539197;91;21134;-39
2021/09/17 07:50:07;;;;;;;19.17;10.20;;;;;;;18.90;50.44;100025.33;1607996;85;21077;-38
2021/09/17 07:53:06;;;;;;;20.08;9.18;;;;;;;19.08;50.59;100025.97;1614080;87;21114;-39
2021/09/17 07:55:40;;;;;;;25.88;8.98;;;;;;;19.28;49.98;100020.72;1660136;84;21097;-39
2021/09/17 07:58:13;;;;;;;30.35;9.18;;;;;;;19.44;49.13;100016.13;1619276;86;21508;-37
2021/09/17 08:00:49;;;;;;;30.70;10.13;;;;;;;19.53;49.55;100015.73;1626040;85;21117;-40
2021/09/17 08:03:18;;;;;;;18.25;8.93;;;;;;;19.66;48.85;100010.37;1651116;84;21101;-40
2021/09/17 08:05:53;;;;;;;23.40;9.23;;;;;;;19.79;49.14;100006.73;1652813;84;21446;-41
2021/09/17 08:16:23;;;;;;;15.20;8.45;;;;;;;20.20;47.09;100010.25;1647180;84;21175;-39
2021/09/17 08:19:38;;;;;;;23.77;9.80;;;;;;;20.37;46.39;100005.06;1607554;85;21208;-39
2021/09/17 08:28:52;;;;;;;20.82;9.63;;;;;;;20.57;46.63;99989.56;1570171;87;21211;-37
2021/09/17 08:31:22;;;;;;;19.17;10.23;;;;;;;20.69;45.67;99985.00;1543780;90;21049;-39
2021/09/17 08:34:10;;;;;;;28.47;9.33;;;;;;;20.82;45.61;99985.31;1555310;90;21182;-36
2021/09/17 08:48:50;;;;;;;20.25;7.47;;;;;;;21.55;43.59;99966.73;1546489;88;21210;31
2021/09/17 09:23:51;;;;;;;13.48;5.42;;;;;;;23.02;38.28;99933.13;1567440;89;21081;-40
2021/09/17 09:34:47;;;;;;;15.53;5.20;;;;;;;23.32;36.68;99915.34;1542811;89;21207;-38
2021/09/17 09:41:39;;;;;;;9.98;4.70;;;;;;;23.41;36.75;99915.26;1572562;88;21097;-41
2021/09/17 10:04:23;;;;;;;18.70;6.03;;;;;;;23.77;36.28;99894.01;1526923;91;21048;-37
2021/09/17 10:08:01;;;;;;;9.38;4.60;;;;;;;23.77;36.98;99886.89;1517362;91;21800;-39
2021/09/17 10:11:32;;;;;;;17.75;5.22;;;;;;;23.77;36.89;99887.33;1551766;90;21075;-37
2021/09/17 10:26:09;;;;;;;12.55;4.53;;;;;;;25.32;33.23;99863.59;1556201;87;21150;-38
2021/09/17 10:29:07;;;;;;;23.18;5.70;;;;;;;25.68;33.26;99866.91;1469467;90;21757;-38
2021/09/17 10:31:59;;;;;;;12.05;3.52;;;;;;;25.72;33.19;99865.25;1469719;93;21150;-40
2021/09/17 10:34:55;;;;;;;22.65;5.37;;;;;;;25.65;33.18;99857.76;1517760;92;21827;-40
2021/09/17 10:38:18;;;;;;;15.65;5.08;;;;;;;25.54;33.24;99856.30;1557392;88;21195;-41
2021/09/17 10:45:24;;;;;;;8.23;4.47;;;;;;;25.42;33.74;99853.98;1574409;89;21036;-38
2021/09/17 12:08:41;;;;;;;21.52;4.97;;;;;;;24.84;36.04;99745.03;1632576;82;21912;31
2021/09/17 12:12:13;;;;;;;12.98;5.22;;;;;;;24.84;36.04;99745.03;1607782;87;21094;31
2021/09/17 12:15:49;;;;;;;13.40;4.97;;;;;;;24.93;36.02;99743.08;1618733;86;21103;-36
2021/09/17 12:19:12;;;;;;;11.20;4.10;;;;;;;24.91;35.51;99742.30;1579703;88;21159;-36
2021/09/17 12:22:15;;;;;;;19.17;5.17;;;;;;;24.73;36.10;99733.34;1565328;88;21165;-37
2021/09/17 12:25:06;;;;;;;9.70;5.03;;;;;;;24.63;36.78;99733.94;1548223;89;21168;-37
2021/09/17 12:27:45;;;;;;;16.85;4.85;;;;;;;24.58;37.13;99726.70;1522112;91;21133;-35
2021/09/17 12:30:14;;;;;;;;;;;;;;;24.55;37.20;99724.73;1598720;89;21056;-37
2021/09/17 12:32:50;;;;;;;8.95;5.15;;;;;;;24.56;37.29;99722.43;1597516;89;20229;-37
2021/09/17 12:35:19;;;;;;;21.40;6.70;;;;;;;24.57;37.60;99721.47;1549989;89;21132;-38
2021/09/17 12:37:55;;;;;;;21.95;5.83;;;;;;;24.74;37.95;99705.63;1609068;82;21675;-35
2021/09/17 12:40:26;;;;;;;11.25;5.40;;;;;;;24.74;37.95;99705.63;1581568;87;21017;-38
2021/09/17 12:43:26;;;;;;;;;;;;;;;24.84;37.27;99704.91;1628824;86;21288;-37
2021/09/17 12:48:42;;;;;;;14.35;5.10;;;;;;;24.95;37.06;99714.88;1624876;87;21253;-34
2021/09/17 12:51:17;;;;;;;17.57;5.33;;;;;;;24.74;37.95;99700.28;1566873;89;21007;-35
2021/09/17 12:53:48;;;;;;;13.03;5.65;;;;;;;24.64;38.75;99700.03;1551318;88;21041;-37
2021/09/17 12:56:17;;;;;;;25.85;5.75;;;;;;;24.64;38.75;99700.03;1638136;86;21068;-37
2021/09/17 12:59:06;;;;;;;18.70;5.05;;;;;;;24.59;38.66;99698.17;1602886;87;21110;-39
2021/09/17 13:01:46;;;;;;;25.57;5.92;;;;;;;24.59;38.66;99698.17;1630943;87;21133;-37
2021/09/17 13:04:15;;;;;;;12.20;5.03;;;;;;;24.56;38.74;99703.72;1583204;88;21128;-37
2021/09/17 13:06:44;;;;;;;11.25;4.78;;;;;;;24.58;38.81;99696.44;1622909;86;21661;-37
2021/09/17 13:09:22;;;;;;;17.02;4.53;;;;;;;24.65;38.83;99698.62;1599694;88;21048;-34
